OSDI/DAM METAR and TAF weather

Enter ICAO airport designator
Station Type Date Time Source
OSDI METAR 2019/08/24 23:00 UTC NOAA

OSDI 242300Z 21010KT CAVOK 24/17 Q1011


Station Type Date Time Source
OSDI Decoded METAR 2019/08/24 23:00 UTC NOAA

Station name not available
Aug 24, 2019 - 07:00 PM EDT / 2019.08.24 2300 UTC
Wind: from the SSW (210 degrees) at 12 MPH (10 KT):0
Visibility: greater than 7 mile(s):0
Temperature: 75 F (24 C)
Dew Point: 62 F (17 C)
Relative Humidity: 64%
Pressure (altimeter): 29.85 in. Hg (1011 hPa)
ob: OSDI 242300Z 21010KT CAVOK 24/17 Q1011
cycle: 23

Station Type Date Time Source
OSDI TAF 2019/08/24 18:57 UTC NOAA

TAF TAF OSDI 241600Z 2418/2524 22012KT CAVOK
TEMPO 2509/2518 25015G25KT 8000 FEW030

Example: see airport list